createdAt,value
2017-09-29T00:01:03.534Z,199.63
2017-09-29T00:03:04.497Z,201.00
2017-09-29T00:05:05.486Z,191.17
2017-09-29T00:07:07.174Z,217.20
2017-09-29T00:09:08.135Z,211.63
2017-09-29T00:11:09.087Z,200.60
2017-09-29T00:13:10.033Z,189.73
2017-09-29T00:15:10.989Z,204.57
2017-09-29T00:17:11.985Z,217.17
2017-09-29T00:19:13.700Z,217.87
2017-09-29T00:21:14.649Z,207.13
2017-09-29T00:23:15.602Z,209.17
2017-09-29T00:25:16.560Z,203.47
2017-09-29T00:27:17.525Z,202.27
2017-09-29T00:29:19.213Z,186.77
2017-09-29T00:31:20.174Z,212.10
2017-09-29T00:33:21.132Z,213.03
2017-09-29T00:35:22.089Z,170.77
2017-09-29T00:37:23.049Z,193.17
2017-09-29T00:39:24.027Z,184.47
2017-09-29T00:41:25.759Z,210.50
2017-09-29T00:43:26.742Z,203.47
2017-09-29T00:45:28.455Z,193.87
2017-09-29T00:47:29.400Z,207.67
2017-09-29T00:49:30.353Z,189.60
2017-09-29T00:51:31.313Z,200.27
2017-09-29T00:53:32.995Z,208.03
2017-09-29T00:55:33.954Z,215.67
2017-09-29T00:57:34.974Z,210.07
2017-09-29T00:59:36.688Z,187.03
2017-09-29T01:01:37.636Z,197.93
2017-09-29T01:03:44.690Z,203.90
2017-09-29T01:05:45.708Z,178.60
2017-09-29T01:07:46.685Z,180.60
2017-09-29T01:09:47.684Z,175.83
2017-09-29T01:11:48.669Z,191.87
2017-09-29T01:13:49.652Z,183.80
2017-09-29T01:15:51.383Z,182.03
2017-09-29T01:17:52.366Z,189.40
2017-09-29T01:19:54.152Z,196.83
2017-09-29T01:21:55.122Z,198.80
2017-09-29T01:23:56.102Z,209.10
2017-09-29T01:25:57.087Z,167.67
2017-09-29T01:27:58.057Z,207.57
2017-09-29T01:29:59.026Z,214.03
2017-09-29T01:31:59.988Z,221.77
2017-09-29T01:34:00.951Z,192.40
2017-09-29T01:36:02.668Z,185.27
2017-09-29T01:38:03.737Z,168.93
2017-09-29T01:40:04.680Z,178.20
2017-09-29T01:44:14.228Z,174.80
2017-09-29T01:46:15.952Z,178.20
2017-09-29T01:48:16.950Z,163.67
2017-09-29T01:50:24.141Z,172.13
2017-09-29T01:54:37.406Z,180.57
2017-09-29T01:56:38.400Z,192.67
2017-09-29T01:58:40.128Z,189.00
2017-09-29T02:00:41.112Z,179.93
2017-09-29T02:02:42.113Z,174.83
2017-09-29T02:04:43.845Z,171.10
2017-09-29T02:06:44.828Z,176.03
2017-09-29T02:08:45.881Z,199.63
2017-09-29T02:10:46.893Z,184.60
2017-09-29T02:12:48.608Z,188.80
2017-09-29T02:14:49.551Z,211.87
2017-09-29T02:16:50.507Z,196.40
2017-09-29T02:18:51.501Z,191.27
2017-09-29T02:20:52.498Z,200.30
2017-09-29T02:22:54.220Z,174.30
2017-09-29T02:24:55.238Z,182.80
2017-09-29T02:26:56.219Z,207.43
2017-09-29T02:28:57.246Z,178.13
2017-09-29T02:30:58.318Z,188.23
2017-09-29T02:32:59.286Z,170.43
2017-09-29T02:35:01.020Z,172.33
2017-09-29T02:37:01.981Z,182.10
2017-09-29T02:39:02.961Z,175.47
2017-09-29T02:41:04.734Z,176.80
2017-09-29T02:43:05.723Z,181.10
2017-09-29T02:45:06.706Z,159.17
2017-09-29T02:47:08.413Z,178.20
2017-09-29T02:49:09.410Z,162.27
2017-09-29T02:51:11.145Z,158.17
2017-09-29T02:53:12.126Z,159.53
2017-09-29T02:55:13.837Z,157.40
2017-09-29T02:57:35.499Z,175.37
2017-09-29T02:59:37.222Z,155.13
2017-09-29T03:01:39.826Z,162.40
2017-09-29T03:03:41.524Z,159.70
2017-09-29T03:05:43.940Z,175.70
2017-09-29T03:07:44.928Z,169.13
2017-09-29T03:09:45.884Z,176.17
2017-09-29T03:11:46.881Z,178.50
2017-09-29T03:13:47.841Z,174.50
2017-09-29T03:15:48.785Z,168.07
2017-09-29T03:17:49.745Z,182.07
2017-09-29T03:19:50.700Z,205.48
2017-09-29T03:21:51.661Z,189.37
2017-09-29T03:23:52.626Z,196.20
2017-09-29T03:25:54.333Z,197.93
2017-09-29T03:27:55.297Z,184.87
2017-09-29T03:29:56.299Z,178.47
2017-09-29T03:31:57.289Z,150.60
2017-09-29T03:33:58.261Z,162.50
2017-09-29T03:35:59.208Z,180.90
2017-09-29T03:38:00.213Z,162.77
2017-09-29T03:40:01.170Z,145.43
2017-09-29T03:42:02.137Z,150.50
2017-09-29T03:44:03.102Z,137.57
2017-09-29T03:46:04.809Z,148.67
2017-09-29T03:48:05.761Z,140.13
2017-09-29T03:50:09.554Z,146.03
2017-09-29T03:52:11.269Z,150.13
2017-09-29T03:54:13.826Z,176.40
2017-09-29T03:56:15.501Z,180.13
2017-09-29T03:58:20.842Z,196.47
2017-09-29T04:00:21.825Z,203.97
2017-09-29T04:02:23.534Z,165.53
2017-09-29T04:04:24.545Z,157.13
2017-09-29T04:06:26.281Z,144.77
2017-09-29T04:08:27.240Z,135.37
2017-09-29T04:10:31.113Z,154.20
2017-09-29T04:12:32.097Z,188.40
2017-09-29T04:14:33.053Z,169.83
2017-09-29T04:16:34.041Z,147.03
2017-09-29T04:18:35.002Z,150.43
2017-09-29T04:20:35.957Z,160.17
2017-09-29T04:22:37.648Z,171.43
2017-09-29T04:24:38.605Z,173.73
2017-09-29T04:26:40.302Z,191.40
2017-09-29T04:28:41.257Z,181.53
2017-09-29T04:30:42.221Z,162.47
2017-09-29T04:32:43.177Z,155.90
2017-09-29T04:34:44.137Z,177.13
2017-09-29T04:36:45.094Z,165.10
2017-09-29T04:38:46.789Z,154.97
2017-09-29T04:40:47.726Z,173.17
2017-09-29T04:42:48.674Z,177.37
2017-09-29T04:44:50.128Z,156.93
2017-09-29T04:46:51.081Z,167.23
2017-09-29T04:48:52.049Z,158.00
2017-09-29T04:50:53.051Z,163.50
2017-09-29T04:52:54.741Z,150.47
2017-09-29T04:54:55.765Z,148.53
2017-09-29T04:56:57.456Z,143.20
2017-09-29T04:58:58.401Z,153.53
2017-09-29T05:00:59.352Z,144.83
2017-09-29T05:03:00.296Z,148.57
2017-09-29T05:05:01.250Z,153.17
2017-09-29T05:07:02.212Z,164.20
2017-09-29T05:09:03.194Z,169.67
2017-09-29T05:11:04.146Z,153.33
2017-09-29T05:13:05.849Z,161.07
2017-09-29T05:15:06.826Z,165.97
2017-09-29T05:17:07.793Z,161.73
2017-09-29T05:19:08.746Z,196.17
2017-09-29T05:21:10.477Z,167.23
2017-09-29T05:23:11.434Z,160.20
2017-09-29T05:25:12.412Z,165.60
2017-09-29T05:27:14.104Z,183.73
2017-09-29T05:29:15.064Z,172.93
2017-09-29T05:31:16.072Z,158.50
2017-09-29T05:33:17.065Z,167.30
2017-09-29T05:35:18.029Z,154.70
2017-09-29T05:37:18.985Z,150.73
2017-09-29T05:39:19.937Z,141.43
2017-09-29T05:41:20.889Z,166.23
2017-09-29T05:43:22.577Z,146.00
2017-09-29T05:45:23.553Z,154.70
2017-09-29T05:47:24.543Z,122.40
2017-09-29T05:49:26.339Z,138.93
2017-09-29T05:51:27.310Z,159.10
2017-09-29T05:53:28.256Z,151.23
2017-09-29T05:55:29.221Z,149.93
2017-09-29T05:57:30.185Z,145.50
2017-09-29T05:59:31.129Z,146.37
2017-09-29T06:01:32.101Z,153.63
2017-09-29T06:03:33.077Z,144.67
2017-09-29T06:05:34.033Z,149.67
2017-09-29T06:07:35.010Z,139.87
2017-09-29T06:09:35.966Z,141.90
2017-09-29T06:11:37.669Z,150.77
2017-09-29T06:13:38.622Z,147.03
2017-09-29T06:15:39.580Z,137.00
2017-09-29T06:17:40.537Z,146.90
2017-09-29T06:19:41.609Z,152.17
2017-09-29T06:21:42.564Z,158.43
2017-09-29T06:23:44.256Z,153.67
2017-09-29T06:25:45.216Z,152.13
2017-09-29T06:27:46.211Z,167.07
2017-09-29T06:29:47.158Z,159.20
2017-09-29T06:31:48.138Z,157.83
2017-09-29T06:33:49.085Z,136.70
2017-09-29T06:35:50.040Z,165.83
2017-09-29T06:37:50.994Z,150.87
2017-09-29T06:39:51.937Z,152.77
2017-09-29T06:41:52.888Z,144.77
2017-09-29T06:43:53.846Z,169.17
2017-09-29T06:45:54.818Z,155.33
2017-09-29T06:47:55.841Z,158.57
2017-09-29T06:49:57.693Z,158.13
2017-09-29T06:51:58.666Z,144.20
2017-09-29T06:53:59.637Z,156.23
2017-09-29T06:56:00.598Z,157.60
2017-09-29T06:58:02.294Z,136.43
2017-09-29T07:00:03.338Z,137.50
2017-09-29T07:02:04.305Z,127.37
2017-09-29T07:04:05.287Z,116.83
2017-09-29T07:06:06.999Z,138.32
2017-09-29T07:08:07.961Z,130.63
2017-09-29T07:10:09.702Z,127.70
2017-09-29T07:12:10.658Z,136.47
2017-09-29T07:14:11.645Z,136.20
2017-09-29T07:16:12.602Z,126.97
2017-09-29T07:18:14.306Z,133.70
2017-09-29T07:20:15.257Z,131.13
2017-09-29T07:24:59.145Z,136.47
2017-09-29T07:27:03.537Z,142.60
2017-09-29T07:29:08.580Z,131.77
2017-09-29T07:31:11.137Z,128.07
2017-09-29T07:33:12.101Z,136.43
2017-09-29T07:35:13.052Z,139.03
2017-09-29T07:37:14.750Z,139.07
2017-09-29T07:39:15.974Z,131.20
2017-09-29T07:41:17.740Z,126.00
2017-09-29T07:43:19.432Z,114.53
2017-09-29T07:45:20.393Z,124.00
2017-09-29T07:47:21.359Z,125.93
2017-09-29T07:49:22.333Z,110.70
2017-09-29T07:51:23.306Z,109.50
2017-09-29T07:53:24.288Z,98.90
2017-09-29T07:55:25.248Z,111.40
2017-09-29T07:57:26.205Z,116.47
2017-09-29T07:59:27.174Z,93.63
2017-09-29T08:01:28.881Z,93.53
2017-09-29T08:03:29.851Z,104.10
2017-09-29T08:05:30.814Z,118.80
2017-09-29T08:07:31.796Z,104.30
2017-09-29T08:09:32.809Z,94.93
2017-09-29T08:11:40.899Z,97.53
2017-09-29T08:13:41.873Z,86.80
2017-09-29T08:15:42.842Z,98.43
2017-09-29T08:17:44.558Z,103.80
2017-09-29T08:19:45.523Z,92.17
2017-09-29T08:21:46.505Z,94.30
2017-09-29T08:23:47.490Z,91.80
2017-09-29T08:25:48.473Z,99.20
2017-09-29T08:27:49.434Z,98.57
2017-09-29T08:29:51.149Z,98.87
2017-09-29T08:31:52.131Z,87.33
2017-09-29T08:33:53.095Z,78.80
2017-09-29T08:35:54.809Z,87.83
2017-09-29T08:37:55.769Z,81.13
2017-09-29T08:39:56.741Z,80.77
2017-09-29T08:41:58.458Z,71.97
2017-09-29T08:43:59.412Z,72.77
2017-09-29T08:46:00.372Z,84.60
2017-09-29T08:48:01.334Z,78.03
2017-09-29T08:50:03.046Z,74.23
2017-09-29T08:52:04.060Z,82.50
2017-09-29T08:54:05.759Z,79.43
2017-09-29T08:56:06.722Z,94.00
2017-09-29T08:58:07.684Z,74.17
2017-09-29T09:00:08.648Z,81.45
2017-09-29T09:02:09.622Z,73.40
2017-09-29T09:04:10.581Z,80.43
2017-09-29T09:06:11.553Z,69.83
2017-09-29T09:08:12.521Z,73.00
2017-09-29T09:10:13.516Z,75.20
2017-09-29T09:12:14.528Z,66.40
2017-09-29T09:14:16.223Z,74.53
2017-09-29T09:16:17.229Z,69.73
2017-09-29T09:18:18.194Z,78.07
2017-09-29T09:20:19.909Z,67.17
2017-09-29T09:22:20.886Z,69.20
2017-09-29T09:24:21.858Z,66.90
2017-09-29T09:26:22.839Z,80.03
2017-09-29T09:28:23.796Z,68.70
2017-09-29T09:30:24.762Z,60.40
2017-09-29T09:32:25.739Z,62.80
2017-09-29T09:34:27.444Z,66.20
2017-09-29T09:36:28.422Z,67.00
2017-09-29T09:38:29.406Z,57.70
2017-09-29T09:40:30.395Z,60.70
2017-09-29T09:42:31.378Z,59.17
2017-09-29T09:44:33.074Z,65.93
2017-09-29T09:46:34.102Z,61.47
2017-09-29T09:48:35.838Z,61.27
2017-09-29T09:50:36.793Z,66.20
2017-09-29T09:52:37.773Z,59.20
2017-09-29T09:54:38.765Z,61.13
2017-09-29T09:56:39.719Z,58.60
2017-09-29T09:58:40.680Z,61.63
2017-09-29T10:00:42.385Z,56.60
2017-09-29T10:02:43.350Z,50.50
2017-09-29T10:04:44.302Z,52.63
2017-09-29T10:06:45.260Z,49.70
2017-09-29T10:08:46.213Z,54.33
2017-09-29T10:10:47.177Z,57.43
2017-09-29T10:12:48.877Z,52.07
2017-09-29T10:14:49.833Z,46.33
2017-09-29T10:16:50.794Z,56.17
2017-09-29T10:18:51.761Z,52.30
2017-09-29T10:23:01.090Z,55.83
2017-09-29T10:25:02.050Z,51.53
2017-09-29T10:27:03.009Z,48.87
2017-09-29T10:29:03.977Z,50.80
2017-09-29T10:31:05.681Z,45.13
2017-09-29T10:33:06.669Z,51.27
2017-09-29T10:35:07.633Z,47.33
2017-09-29T10:37:08.587Z,54.10
2017-09-29T10:39:10.287Z,52.70
2017-09-29T10:41:11.245Z,45.13
2017-09-29T10:43:12.218Z,57.13
2017-09-29T10:45:13.189Z,48.50
2017-09-29T10:47:14.892Z,49.67
2017-09-29T10:49:15.849Z,48.27
2017-09-29T10:51:16.815Z,47.10
2017-09-29T10:53:17.790Z,40.57
2017-09-29T10:55:19.482Z,45.60
2017-09-29T10:57:20.436Z,45.43
2017-09-29T10:59:21.418Z,46.17
2017-09-29T11:01:22.392Z,42.37
2017-09-29T11:03:24.083Z,47.57
2017-09-29T11:05:25.041Z,48.97
2017-09-29T11:07:26.010Z,47.33
2017-09-29T11:09:27.714Z,46.03
2017-09-29T11:11:29.409Z,48.13
2017-09-29T11:13:30.370Z,44.97
2017-09-29T11:15:31.339Z,42.95
2017-09-29T11:17:32.287Z,43.40
2017-09-29T11:19:33.236Z,42.50
2017-09-29T11:21:34.185Z,53.73
2017-09-29T11:23:35.141Z,47.23
2017-09-29T11:25:36.167Z,47.67
2017-09-29T11:27:37.126Z,52.77
2017-09-29T11:29:38.093Z,55.60
2017-09-29T11:31:39.781Z,54.27
2017-09-29T11:33:40.734Z,52.37
2017-09-29T11:35:48.569Z,61.53
2017-09-29T11:37:49.523Z,64.33
2017-09-29T11:39:50.482Z,58.73
2017-09-29T11:41:51.420Z,61.00
2017-09-29T11:43:52.378Z,51.63
2017-09-29T11:45:53.342Z,64.93
2017-09-29T11:47:55.033Z,56.27
2017-09-29T11:49:56.082Z,54.83
2017-09-29T11:51:57.039Z,56.10
2017-09-29T11:53:57.992Z,61.67
2017-09-29T11:55:58.984Z,53.93
2017-09-29T11:58:00.681Z,51.77
2017-09-29T12:00:01.651Z,55.00
2017-09-29T12:02:02.609Z,50.43
2017-09-29T12:04:03.601Z,55.00
2017-09-29T12:06:04.563Z,53.20
2017-09-29T12:08:05.509Z,45.20
2017-09-29T12:10:06.489Z,41.70
2017-09-29T12:12:07.465Z,38.10
2017-09-29T12:14:08.409Z,40.43
2017-09-29T12:16:09.386Z,39.00
2017-09-29T12:18:10.339Z,32.50
2017-09-29T12:20:11.291Z,35.40
2017-09-29T12:22:12.254Z,37.13
2017-09-29T12:24:13.206Z,27.97
2017-09-29T12:26:14.168Z,27.73
2017-09-29T12:28:15.128Z,25.43
2017-09-29T12:30:16.079Z,26.57
2017-09-29T12:32:17.037Z,22.90
2017-09-29T12:34:18.726Z,28.47
2017-09-29T12:36:19.689Z,24.05
2017-09-29T12:38:20.624Z,33.73
2017-09-29T12:40:21.581Z,24.87
2017-09-29T12:42:22.684Z,25.20
2017-09-29T12:44:24.398Z,23.13
2017-09-29T12:46:25.375Z,20.47
2017-09-29T12:48:26.345Z,19.73
2017-09-29T12:50:28.038Z,24.50
2017-09-29T12:52:29.003Z,20.20
2017-09-29T12:54:29.949Z,15.83
2017-09-29T12:56:30.913Z,17.40
2017-09-29T12:58:31.872Z,19.43
2017-09-29T13:00:32.818Z,15.43
2017-09-29T13:02:33.787Z,13.90
2017-09-29T13:04:34.747Z,18.53
2017-09-29T13:06:35.719Z,17.13
2017-09-29T13:08:37.479Z,12.63
2017-09-29T13:10:38.434Z,11.17
2017-09-29T13:12:39.406Z,12.50
2017-09-29T13:14:40.351Z,12.57
2017-09-29T13:16:42.054Z,13.73
2017-09-29T13:18:43.032Z,13.70
2017-09-29T13:20:43.983Z,13.40
2017-09-29T13:22:44.945Z,14.90
2017-09-29T13:24:46.023Z,14.30
2017-09-29T13:26:47.740Z,12.03
2017-09-29T13:28:48.692Z,17.60
2017-09-29T13:30:49.664Z,12.33
2017-09-29T13:32:51.397Z,16.20
2017-09-29T13:34:52.363Z,18.17
2017-09-29T13:36:53.310Z,16.50
2017-09-29T13:38:54.269Z,24.37
2017-09-29T13:40:55.969Z,15.37
2017-09-29T13:42:56.925Z,18.67
2017-09-29T13:44:57.876Z,18.57
2017-09-29T13:46:58.829Z,15.60
2017-09-29T13:48:59.784Z,27.00
2017-09-29T13:51:00.736Z,18.37
2017-09-29T13:53:01.712Z,20.77
2017-09-29T13:55:03.405Z,18.40
2017-09-29T13:57:04.361Z,21.57
2017-09-29T13:59:05.321Z,22.13
2017-09-29T14:01:06.265Z,18.33
2017-09-29T14:03:07.222Z,23.83
2017-09-29T14:05:08.177Z,24.77
2017-09-29T14:07:09.129Z,27.33
2017-09-29T14:09:10.081Z,26.17
2017-09-29T14:11:11.045Z,25.83
2017-09-29T14:13:12.737Z,35.23
2017-09-29T14:15:13.696Z,27.53
2017-09-29T14:17:14.649Z,23.87
2017-09-29T14:19:15.605Z,29.12
2017-09-29T14:21:16.567Z,26.10
2017-09-29T14:23:17.524Z,25.93
2017-09-29T14:25:18.484Z,23.70
2017-09-29T14:27:20.177Z,21.37
2017-09-29T14:29:21.133Z,25.13
2017-09-29T14:31:22.092Z,27.43
2017-09-29T14:33:23.041Z,20.60
2017-09-29T14:35:24.001Z,22.47
2017-09-29T14:37:24.966Z,27.00
2017-09-29T14:39:26.660Z,32.93
2017-09-29T14:41:27.605Z,28.77
2017-09-29T14:43:28.561Z,23.60
2017-09-29T14:45:29.517Z,26.50
2017-09-29T14:47:30.466Z,17.73
2017-09-29T14:49:31.552Z,16.00
2017-09-29T14:51:32.506Z,23.10
2017-09-29T14:53:34.196Z,24.07
2017-09-29T14:55:35.152Z,18.80
2017-09-29T14:57:36.114Z,31.57
2017-09-29T14:59:37.068Z,19.70
2017-09-29T15:01:38.048Z,25.63
2017-09-29T15:03:39.001Z,18.70
2017-09-29T15:05:39.949Z,25.93
2017-09-29T15:07:41.657Z,24.20
2017-09-29T15:09:42.604Z,24.43
2017-09-29T15:11:43.561Z,19.13
2017-09-29T15:13:44.517Z,16.50
2017-09-29T15:15:45.478Z,15.17
2017-09-29T15:17:46.433Z,17.40
2017-09-29T15:19:47.395Z,13.53
2017-09-29T15:21:49.119Z,14.90
2017-09-29T15:23:50.074Z,17.13
2017-09-29T15:25:51.045Z,20.50
2017-09-29T15:27:52.743Z,14.93
2017-09-29T15:29:53.700Z,12.50
2017-09-29T15:31:54.663Z,20.53
2017-09-29T15:33:55.620Z,14.13
2017-09-29T15:35:56.584Z,19.80
2017-09-29T15:37:57.554Z,14.87
2017-09-29T15:39:58.505Z,15.97
2017-09-29T15:41:59.460Z,13.87
2017-09-29T15:44:00.409Z,15.07
2017-09-29T15:46:01.382Z,28.10
2017-09-29T15:48:02.353Z,28.80
2017-09-29T15:50:03.360Z,16.53
2017-09-29T15:52:04.334Z,21.40
2017-09-29T15:54:05.309Z,21.97
2017-09-29T15:56:07.022Z,15.43
2017-09-29T15:58:07.990Z,18.20
2017-09-29T16:00:08.944Z,18.03
2017-09-29T16:02:09.904Z,14.30
2017-09-29T16:04:10.845Z,16.47
2017-09-29T16:06:11.781Z,14.40
2017-09-29T16:08:12.745Z,22.13
2017-09-29T16:10:14.445Z,15.13
2017-09-29T16:12:15.466Z,17.37
2017-09-29T16:14:17.173Z,18.73
2017-09-29T16:16:18.129Z,14.20
2017-09-29T16:18:19.830Z,14.37
2017-09-29T16:20:21.529Z,24.33
2017-09-29T16:22:22.497Z,14.40
2017-09-29T16:24:23.454Z,16.17
2017-09-29T16:26:24.416Z,18.30
2017-09-29T16:28:25.380Z,14.23
2017-09-29T16:30:27.072Z,18.83
2017-09-29T16:32:28.080Z,14.73
2017-09-29T16:34:29.033Z,13.83
2017-09-29T16:36:30.729Z,15.17
2017-09-29T16:38:31.686Z,21.00
2017-09-29T16:40:32.654Z,13.13
2017-09-29T16:42:40.511Z,20.57
2017-09-29T16:44:42.206Z,17.43
2017-09-29T16:46:43.157Z,15.30
2017-09-29T16:48:44.123Z,17.83
2017-09-29T16:50:45.262Z,21.53
2017-09-29T16:52:47.428Z,17.87
2017-09-29T16:54:48.427Z,16.50
2017-09-29T16:56:50.338Z,21.47
2017-09-29T16:58:51.294Z,19.90
2017-09-29T17:00:52.250Z,29.60
2017-09-29T17:02:53.328Z,26.40
2017-09-29T17:04:55.032Z,22.37
2017-09-29T17:06:55.980Z,23.97
2017-09-29T17:08:56.958Z,28.37
2017-09-29T17:10:57.913Z,41.23
2017-09-29T17:12:58.861Z,23.70
2017-09-29T17:14:59.933Z,25.13
2017-09-29T17:17:01.812Z,20.80
2017-09-29T17:19:03.565Z,23.30
2017-09-29T17:21:05.288Z,22.50
2017-09-29T17:23:06.245Z,22.70
2017-09-29T17:25:07.206Z,24.93
2017-09-29T17:27:08.164Z,26.83
2017-09-29T17:29:09.863Z,25.23
2017-09-29T17:31:10.837Z,26.47
2017-09-29T17:33:11.809Z,27.30
2017-09-29T17:35:12.766Z,26.37
2017-09-29T17:37:14.520Z,35.03
2017-09-29T17:39:15.475Z,26.87
2017-09-29T17:41:17.345Z,25.03
2017-09-29T17:43:19.052Z,24.00
2017-09-29T17:45:20.756Z,26.33
2017-09-29T17:47:21.713Z,27.20
2017-09-29T17:49:22.668Z,27.87
2017-09-29T17:51:24.366Z,25.43
2017-09-29T17:53:25.325Z,25.20
2017-09-29T17:55:26.313Z,27.37
2017-09-29T17:57:27.290Z,31.77
2017-09-29T17:59:28.237Z,27.20
2017-09-29T18:01:29.189Z,30.70
2017-09-29T18:03:30.166Z,29.33
2017-09-29T18:05:31.116Z,38.60
2017-09-29T18:07:32.085Z,28.83
2017-09-29T18:09:33.044Z,28.30
2017-09-29T18:11:34.789Z,37.37
2017-09-29T18:13:35.743Z,34.03
2017-09-29T18:15:36.705Z,32.40
2017-09-29T18:17:37.665Z,32.00
2017-09-29T18:19:38.633Z,32.15
2017-09-29T18:21:39.588Z,32.63
2017-09-29T18:23:40.553Z,33.80
2017-09-29T18:25:41.517Z,31.07
2017-09-29T18:27:42.456Z,31.47
2017-09-29T18:29:43.422Z,38.50
2017-09-29T18:31:45.168Z,30.00
2017-09-29T18:33:46.153Z,35.50
2017-09-29T18:35:47.117Z,30.07
2017-09-29T18:37:48.108Z,31.13
2017-09-29T18:39:49.101Z,41.43
2017-09-29T18:41:50.089Z,30.97
2017-09-29T18:46:02.099Z,35.40
2017-09-29T18:48:03.057Z,27.57
2017-09-29T18:50:04.023Z,29.17
2017-09-29T18:52:04.986Z,29.73
2017-09-29T18:54:06.706Z,37.73
2017-09-29T18:56:07.682Z,33.90
2017-09-29T18:58:08.661Z,32.33
2017-09-29T19:00:09.661Z,28.80
2017-09-29T19:02:10.717Z,31.33
2017-09-29T19:04:11.773Z,30.33
2017-09-29T19:06:12.766Z,28.07
2017-09-29T19:08:13.732Z,31.90
2017-09-29T19:10:14.686Z,29.17
2017-09-29T19:12:15.658Z,28.40
2017-09-29T19:14:16.607Z,29.80
2017-09-29T19:16:17.560Z,32.17
2017-09-29T19:18:19.277Z,30.42
2017-09-29T19:20:20.234Z,30.77
2017-09-29T19:22:21.193Z,35.33
2017-09-29T19:24:22.148Z,38.00
2017-09-29T19:26:23.105Z,33.73
2017-09-29T19:28:24.828Z,27.30
2017-09-29T19:30:25.773Z,31.47
2017-09-29T19:32:26.728Z,40.53
2017-09-29T19:34:27.678Z,42.10
2017-09-29T19:36:28.633Z,31.47
2017-09-29T19:38:29.605Z,37.27
2017-09-29T19:40:31.358Z,37.07
2017-09-29T19:42:32.318Z,37.33
2017-09-29T19:44:34.018Z,38.13
2017-09-29T19:46:34.985Z,30.40
2017-09-29T19:48:35.965Z,32.10
2017-09-29T19:50:37.672Z,30.40
2017-09-29T19:52:38.635Z,30.60
2017-09-29T19:54:39.640Z,34.30
2017-09-29T19:56:40.605Z,39.27
2017-09-29T19:58:41.569Z,34.57
2017-09-29T20:00:42.545Z,41.20
2017-09-29T20:02:43.524Z,38.30
2017-09-29T20:04:44.476Z,39.83
2017-09-29T20:06:45.463Z,37.80
2017-09-29T20:08:46.434Z,37.10
2017-09-29T20:10:47.392Z,36.60
2017-09-29T20:12:49.172Z,33.13
2017-09-29T20:14:50.153Z,38.13
2017-09-29T20:16:51.102Z,36.57
2017-09-29T20:18:52.077Z,44.83
2017-09-29T20:20:53.029Z,38.50
2017-09-29T20:22:54.010Z,54.13
2017-09-29T20:24:54.952Z,56.50
2017-09-29T20:26:55.937Z,40.37
2017-09-29T20:28:57.640Z,48.20
2017-09-29T20:30:59.340Z,37.67
2017-09-29T20:33:00.335Z,43.10
2017-09-29T20:35:01.294Z,42.30
2017-09-29T20:37:03.002Z,40.60
2017-09-29T20:39:03.977Z,35.93
2017-09-29T20:41:04.937Z,43.07
2017-09-29T20:43:05.909Z,43.77
2017-09-29T20:45:07.604Z,38.20
2017-09-29T20:47:08.560Z,45.67
2017-09-29T20:49:09.518Z,44.60
2017-09-29T20:51:10.507Z,43.10
2017-09-29T20:53:12.197Z,50.13
2017-09-29T20:55:13.168Z,48.07
2017-09-29T20:57:14.142Z,55.50
2017-09-29T20:59:15.113Z,50.08
2017-09-29T21:01:16.830Z,49.50
2017-09-29T21:03:17.780Z,43.03
2017-09-29T21:05:18.758Z,47.83
2017-09-29T21:07:20.453Z,47.10
2017-09-29T21:09:21.409Z,44.63
2017-09-29T21:11:22.393Z,42.23
2017-09-29T21:13:23.369Z,56.27
2017-09-29T21:15:25.092Z,51.10
2017-09-29T21:17:26.790Z,47.87
2017-09-29T21:19:28.486Z,47.07
2017-09-29T21:21:29.482Z,51.80
2017-09-29T21:23:30.442Z,48.43
2017-09-29T21:25:32.165Z,50.57
2017-09-29T21:27:33.126Z,43.80
2017-09-29T21:29:34.116Z,48.97
2017-09-29T21:31:35.079Z,50.10
2017-09-29T21:33:36.054Z,50.97
2017-09-29T21:35:37.027Z,61.47
2017-09-29T21:37:37.986Z,45.97
2017-09-29T21:39:39.690Z,53.20
2017-09-29T21:41:40.658Z,53.10
2017-09-29T21:43:41.638Z,54.60
2017-09-29T21:45:43.349Z,54.90
2017-09-29T21:47:44.321Z,57.13
2017-09-29T21:49:45.272Z,52.03
2017-09-29T21:51:46.247Z,49.17
2017-09-29T21:53:48.053Z,52.83
2017-09-29T21:55:49.046Z,57.50
2017-09-29T21:57:50.008Z,49.97
2017-09-29T21:59:51.713Z,57.20
2017-09-29T22:01:52.684Z,51.77
2017-09-29T22:03:53.666Z,58.87
2017-09-29T22:05:54.638Z,52.67
2017-09-29T22:07:55.596Z,57.93
2017-09-29T22:09:56.595Z,56.03
2017-09-29T22:11:58.316Z,58.77
2017-09-29T22:13:59.281Z,50.23
2017-09-29T22:16:00.247Z,52.97
2017-09-29T22:18:01.207Z,53.43
2017-09-29T22:20:02.964Z,50.83
2017-09-29T22:22:04.669Z,53.83
2017-09-29T22:24:05.633Z,52.57
2017-09-29T22:26:06.592Z,55.90
2017-09-29T22:28:07.553Z,53.30
2017-09-29T22:30:09.326Z,57.80
2017-09-29T22:32:11.025Z,57.97
2017-09-29T22:34:11.980Z,51.17
2017-09-29T22:36:12.934Z,55.10
2017-09-29T22:38:13.903Z,64.40
2017-09-29T22:40:14.864Z,58.65
2017-09-29T22:42:15.924Z,58.60
2017-09-29T22:44:16.892Z,54.47
2017-09-29T22:46:17.858Z,59.17
2017-09-29T22:48:18.828Z,57.37
2017-09-29T22:50:19.777Z,58.53
2017-09-29T22:52:20.747Z,60.20
2017-09-29T22:54:21.749Z,55.10
2017-09-29T22:56:22.704Z,58.90
2017-09-29T22:58:23.752Z,63.47
2017-09-29T23:00:24.725Z,56.87
2017-09-29T23:02:25.688Z,55.77
2017-09-29T23:04:27.508Z,61.47
2017-09-29T23:06:28.468Z,62.70
2017-09-29T23:08:29.417Z,55.03
2017-09-29T23:10:30.402Z,60.20
2017-09-29T23:12:32.108Z,58.00
2017-09-29T23:14:33.068Z,59.87
2017-09-29T23:16:34.037Z,57.50
2017-09-29T23:18:34.990Z,57.90
2017-09-29T23:20:36.684Z,56.50
2017-09-29T23:22:37.669Z,60.57
2017-09-29T23:24:39.381Z,59.57
2017-09-29T23:26:40.325Z,54.70
2017-09-29T23:28:42.017Z,62.87
2017-09-29T23:30:42.989Z,70.30
2017-09-29T23:32:43.992Z,56.53
2017-09-29T23:34:44.958Z,58.57
2017-09-29T23:36:45.929Z,64.57
2017-09-29T23:38:46.885Z,59.13
2017-09-29T23:40:47.849Z,58.97
2017-09-29T23:42:49.549Z,52.43
2017-09-29T23:44:50.537Z,59.37
2017-09-29T23:46:51.557Z,61.77
2017-09-29T23:48:52.514Z,57.67
2017-09-29T23:50:53.533Z,65.20
2017-09-29T23:52:54.519Z,58.63
2017-09-29T23:54:55.509Z,59.93
2017-09-29T23:56:57.206Z,54.97
